sensor_id;sensor_type;location;lat;lon;timestamp;temperature;humidity
11188;DHT22;5650;52.700;7.306;2024-02-15T00:01:22;12.90;99.90
11188;DHT22;5650;52.700;7.306;2024-02-15T00:03:50;12.80;99.90
11188;DHT22;5650;52.700;7.306;2024-02-15T00:06:24;12.90;99.90
11188;DHT22;5650;52.700;7.306;2024-02-15T00:08:54;12.90;99.90
11188;DHT22;5650;52.700;7.306;2024-02-15T00:14:44;12.90;99.90
11188;DHT22;5650;52.700;7.306;2024-02-15T00:17:13;12.80;99.90
11188;DHT22;5650;52.700;7.306;2024-02-15T00:19:40;12.80;99.90
11188;DHT22;5650;52.700;7.306;2024-02-15T00:25:21;12.80;99.90
11188;DHT22;5650;52.700;7.306;2024-02-15T00:27:51;12.80;99.90
11188;DHT22;5650;52.700;7.306;2024-02-15T00:30:21;12.80;99.90
11188;DHT22;5650;52.700;7.306;2024-02-15T00:32:53;12.80;99.90
11188;DHT22;5650;52.700;7.306;2024-02-15T00:35:22;12.80;99.90
11188;DHT22;5650;52.700;7.306;2024-02-15T00:37:59;12.80;99.90
11188;DHT22;5650;52.700;7.306;2024-02-15T00:40:32;12.90;99.90
11188;DHT22;5650;52.700;7.306;2024-02-15T00:43:00;12.90;99.90
11188;DHT22;5650;52.700;7.306;2024-02-15T00:45:36;12.90;99.90
11188;DHT22;5650;52.700;7.306;2024-02-15T00:48:08;12.90;99.90
11188;DHT22;5650;52.700;7.306;2024-02-15T00:50:41;12.90;99.90
11188;DHT22;5650;52.700;7.306;2024-02-15T00:53:12;12.90;99.90
11188;DHT22;5650;52.700;7.306;2024-02-15T00:55:39;12.90;99.90
11188;DHT22;5650;52.700;7.306;2024-02-15T00:58:06;12.90;99.90
11188;DHT22;5650;52.700;7.306;2024-02-15T01:00:39;12.90;99.90
11188;DHT22;5650;52.700;7.306;2024-02-15T01:03:10;12.80;99.90
11188;DHT22;5650;52.700;7.306;2024-02-15T01:05:38;12.90;99.90
11188;DHT22;5650;52.700;7.306;2024-02-15T01:08:08;12.90;99.90
11188;DHT22;5650;52.700;7.306;2024-02-15T01:10:38;12.90;99.90
11188;DHT22;5650;52.700;7.306;2024-02-15T01:13:05;12.80;99.90
11188;DHT22;5650;52.700;7.306;2024-02-15T01:15:41;12.90;99.90
11188;DHT22;5650;52.700;7.306;2024-02-15T01:18:21;12.80;99.90
11188;DHT22;5650;52.700;7.306;2024-02-15T01:20:48;12.80;99.90
11188;DHT22;5650;52.700;7.306;2024-02-15T01:23:15;12.80;99.90
11188;DHT22;5650;52.700;7.306;2024-02-15T01:25:42;12.70;99.90
11188;DHT22;5650;52.700;7.306;2024-02-15T01:28:27;12.70;99.90
11188;DHT22;5650;52.700;7.306;2024-02-15T01:30:54;12.70;99.90
11188;DHT22;5650;52.700;7.306;2024-02-15T01:33:29;12.70;99.90
11188;DHT22;5650;52.700;7.306;2024-02-15T01:35:57;12.80;99.90
11188;DHT22;5650;52.700;7.306;2024-02-15T01:38:27;12.80;99.90
11188;DHT22;5650;52.700;7.306;2024-02-15T01:40:57;12.80;99.90
11188;DHT22;5650;52.700;7.306;2024-02-15T01:43:27;12.80;99.90
11188;DHT22;5650;52.700;7.306;2024-02-15T01:49:21;12.80;99.90
11188;DHT22;5650;52.700;7.306;2024-02-15T01:51:50;12.80;99.90
11188;DHT22;5650;52.700;7.306;2024-02-15T01:54:20;12.80;99.90
11188;DHT22;5650;52.700;7.306;2024-02-15T01:56:54;12.90;99.90
11188;DHT22;5650;52.700;7.306;2024-02-15T01:59:37;12.90;99.90
11188;DHT22;5650;52.700;7.306;2024-02-15T02:02:16;13.20;99.90
11188;DHT22;5650;52.700;7.306;2024-02-15T02:05:03;13.30;99.90
11188;DHT22;5650;52.700;7.306;2024-02-15T02:07:39;13.60;99.90
11188;DHT22;5650;52.700;7.306;2024-02-15T02:10:10;13.50;99.90
11188;DHT22;5650;52.700;7.306;2024-02-15T02:12:41;13.40;99.90
11188;DHT22;5650;52.700;7.306;2024-02-15T02:15:09;13.40;99.90
11188;DHT22;5650;52.700;7.306;2024-02-15T02:17:39;13.40;99.90
11188;DHT22;5650;52.700;7.306;2024-02-15T02:20:11;13.40;99.90
11188;DHT22;5650;52.700;7.306;2024-02-15T02:22:39;13.30;99.90
11188;DHT22;5650;52.700;7.306;2024-02-15T02:28:40;13.30;99.90
11188;DHT22;5650;52.700;7.306;2024-02-15T02:31:07;13.30;99.90
11188;DHT22;5650;52.700;7.306;2024-02-15T02:33:40;13.40;99.90
11188;DHT22;5650;52.700;7.306;2024-02-15T02:39:35;13.40;99.90
11188;DHT22;5650;52.700;7.306;2024-02-15T02:42:08;13.40;99.90
11188;DHT22;5650;52.700;7.306;2024-02-15T02:44:36;13.40;99.90
11188;DHT22;5650;52.700;7.306;2024-02-15T02:47:03;13.40;99.90
11188;DHT22;5650;52.700;7.306;2024-02-15T02:49:38;13.40;99.90
11188;DHT22;5650;52.700;7.306;2024-02-15T02:52:08;13.50;99.90
11188;DHT22;5650;52.700;7.306;2024-02-15T02:54:47;13.50;99.90
11188;DHT22;5650;52.700;7.306;2024-02-15T02:57:14;13.50;99.90
11188;DHT22;5650;52.700;7.306;2024-02-15T02:59:45;13.50;99.90
11188;DHT22;5650;52.700;7.306;2024-02-15T03:02:16;13.50;99.90
11188;DHT22;5650;52.700;7.306;2024-02-15T03:04:46;13.40;99.90
11188;DHT22;5650;52.700;7.306;2024-02-15T03:07:13;13.40;99.90
11188;DHT22;5650;52.700;7.306;2024-02-15T03:09:49;13.40;99.90
11188;DHT22;5650;52.700;7.306;2024-02-15T03:12:19;13.40;99.90
11188;DHT22;5650;52.700;7.306;2024-02-15T03:15:04;13.40;99.90
11188;DHT22;5650;52.700;7.306;2024-02-15T03:17:39;13.40;99.90
11188;DHT22;5650;52.700;7.306;2024-02-15T03:20:08;13.40;99.90
11188;DHT22;5650;52.700;7.306;2024-02-15T03:22:43;13.40;99.90
11188;DHT22;5650;52.700;7.306;2024-02-15T03:25:10;13.40;99.90
11188;DHT22;5650;52.700;7.306;2024-02-15T03:27:37;13.40;99.90
11188;DHT22;5650;52.700;7.306;2024-02-15T03:30:19;13.40;99.90
11188;DHT22;5650;52.700;7.306;2024-02-15T03:32:52;13.50;99.90
11188;DHT22;5650;52.700;7.306;2024-02-15T03:35:27;13.50;99.90
11188;DHT22;5650;52.700;7.306;2024-02-15T03:38:06;13.50;99.90
11188;DHT22;5650;52.700;7.306;2024-02-15T03:40:42;13.60;99.90
11188;DHT22;5650;52.700;7.306;2024-02-15T03:46:23;13.50;99.90
11188;DHT22;5650;52.700;7.306;2024-02-15T03:48:50;13.50;99.90
11188;DHT22;5650;52.700;7.306;2024-02-15T03:51:18;13.60;99.90
11188;DHT22;5650;52.700;7.306;2024-02-15T03:53:52;13.60;99.90
11188;DHT22;5650;52.700;7.306;2024-02-15T03:56:22;13.60;99.90
11188;DHT22;5650;52.700;7.306;2024-02-15T03:58:49;13.60;99.90
11188;DHT22;5650;52.700;7.306;2024-02-15T04:01:17;13.60;99.90
11188;DHT22;5650;52.700;7.306;2024-02-15T04:03:46;13.60;99.90
11188;DHT22;5650;52.700;7.306;2024-02-15T04:06:13;13.60;99.90
11188;DHT22;5650;52.700;7.306;2024-02-15T04:08:48;13.60;99.90
11188;DHT22;5650;52.700;7.306;2024-02-15T04:11:16;13.60;99.90
11188;DHT22;5650;52.700;7.306;2024-02-15T04:13:51;13.60;99.90
11188;DHT22;5650;52.700;7.306;2024-02-15T04:16:18;13.60;99.90
11188;DHT22;5650;52.700;7.306;2024-02-15T04:18:52;13.60;99.90
11188;DHT22;5650;52.700;7.306;2024-02-15T04:21:22;13.60;99.90
11188;DHT22;5650;52.700;7.306;2024-02-15T04:23:52;13.60;99.90
11188;DHT22;5650;52.700;7.306;2024-02-15T04:26:21;13.60;99.90
11188;DHT22;5650;52.700;7.306;2024-02-15T04:28:52;13.70;99.90
11188;DHT22;5650;52.700;7.306;2024-02-15T04:31:22;13.70;99.90
11188;DHT22;5650;52.700;7.306;2024-02-15T04:33:53;13.70;99.90
11188;DHT22;5650;52.700;7.306;2024-02-15T04:36:21;13.70;99.90
11188;DHT22;5650;52.700;7.306;2024-02-15T04:38:50;13.70;99.90
11188;DHT22;5650;52.700;7.306;2024-02-15T04:41:27;13.70;99.90
11188;DHT22;5650;52.700;7.306;2024-02-15T04:44:03;13.70;99.90
11188;DHT22;5650;52.700;7.306;2024-02-15T04:46:43;13.70;99.90
11188;DHT22;5650;52.700;7.306;2024-02-15T04:49:16;13.70;99.90
11188;DHT22;5650;52.700;7.306;2024-02-15T04:51:43;13.70;99.90
11188;DHT22;5650;52.700;7.306;2024-02-15T04:54:10;13.70;99.90
11188;DHT22;5650;52.700;7.306;2024-02-15T04:56:42;13.70;99.90
11188;DHT22;5650;52.700;7.306;2024-02-15T04:59:09;13.80;99.90
11188;DHT22;5650;52.700;7.306;2024-02-15T05:01:51;13.80;99.90
11188;DHT22;5650;52.700;7.306;2024-02-15T05:04:34;13.80;99.90
11188;DHT22;5650;52.700;7.306;2024-02-15T05:07:04;13.80;99.90
11188;DHT22;5650;52.700;7.306;2024-02-15T05:09:34;13.80;99.90
11188;DHT22;5650;52.700;7.306;2024-02-15T05:12:05;13.80;99.90
11188;DHT22;5650;52.700;7.306;2024-02-15T05:14:41;14.00;99.90
11188;DHT22;5650;52.700;7.306;2024-02-15T05:17:08;14.00;99.90
11188;DHT22;5650;52.700;7.306;2024-02-15T05:19:38;14.10;99.90
11188;DHT22;5650;52.700;7.306;2024-02-15T05:22:06;14.30;99.90
11188;DHT22;5650;52.700;7.306;2024-02-15T05:24:33;14.10;99.90
11188;DHT22;5650;52.700;7.306;2024-02-15T05:27:01;14.10;99.90
11188;DHT22;5650;52.700;7.306;2024-02-15T05:29:28;14.10;99.90
11188;DHT22;5650;52.700;7.306;2024-02-15T05:31:59;14.00;99.90
11188;DHT22;5650;52.700;7.306;2024-02-15T05:34:27;14.00;99.90
11188;DHT22;5650;52.700;7.306;2024-02-15T05:36:56;14.00;99.90
11188;DHT22;5650;52.700;7.306;2024-02-15T05:39:24;13.90;99.90
11188;DHT22;5650;52.700;7.306;2024-02-15T05:41:51;13.90;99.90
11188;DHT22;5650;52.700;7.306;2024-02-15T05:44:18;14.00;99.90
11188;DHT22;5650;52.700;7.306;2024-02-15T05:46:46;14.00;99.90
11188;DHT22;5650;52.700;7.306;2024-02-15T05:49:13;14.00;99.90
11188;DHT22;5650;52.700;7.306;2024-02-15T05:51:43;13.90;99.90
11188;DHT22;5650;52.700;7.306;2024-02-15T05:54:12;13.90;99.90
11188;DHT22;5650;52.700;7.306;2024-02-15T05:56:39;13.90;99.90
11188;DHT22;5650;52.700;7.306;2024-02-15T05:59:07;13.80;99.90
11188;DHT22;5650;52.700;7.306;2024-02-15T06:01:36;13.80;99.90
11188;DHT22;5650;52.700;7.306;2024-02-15T06:04:04;13.80;99.90
11188;DHT22;5650;52.700;7.306;2024-02-15T06:06:34;13.80;99.90
11188;DHT22;5650;52.700;7.306;2024-02-15T06:09:01;13.80;99.90
11188;DHT22;5650;52.700;7.306;2024-02-15T06:11:32;13.80;99.90
11188;DHT22;5650;52.700;7.306;2024-02-15T06:14:02;13.80;99.90
11188;DHT22;5650;52.700;7.306;2024-02-15T06:16:32;13.80;99.90
11188;DHT22;5650;52.700;7.306;2024-02-15T06:19:11;13.90;99.90
11188;DHT22;5650;52.700;7.306;2024-02-15T06:21:42;13.80;99.90
11188;DHT22;5650;52.700;7.306;2024-02-15T06:24:15;13.70;99.90
11188;DHT22;5650;52.700;7.306;2024-02-15T06:26:54;13.70;99.90
11188;DHT22;5650;52.700;7.306;2024-02-15T06:29:25;13.60;99.90
11188;DHT22;5650;52.700;7.306;2024-02-15T06:32:09;13.20;99.90
11188;DHT22;5650;52.700;7.306;2024-02-15T06:34:56;12.90;99.90
11188;DHT22;5650;52.700;7.306;2024-02-15T06:37:41;12.70;99.90
11188;DHT22;5650;52.700;7.306;2024-02-15T06:40:25;12.50;99.90
11188;DHT22;5650;52.700;7.306;2024-02-15T06:42:56;12.40;99.90
11188;DHT22;5650;52.700;7.306;2024-02-15T06:45:26;12.30;99.90
11188;DHT22;5650;52.700;7.306;2024-02-15T06:48:03;12.20;99.90
11188;DHT22;5650;52.700;7.306;2024-02-15T06:50:42;12.20;99.90
11188;DHT22;5650;52.700;7.306;2024-02-15T06:53:12;12.20;99.90
11188;DHT22;5650;52.700;7.306;2024-02-15T06:55:52;12.10;99.90
11188;DHT22;5650;52.700;7.306;2024-02-15T06:58:23;12.10;99.90
11188;DHT22;5650;52.700;7.306;2024-02-15T07:00:59;12.10;99.90
11188;DHT22;5650;52.700;7.306;2024-02-15T07:03:28;12.10;99.90
11188;DHT22;5650;52.700;7.306;2024-02-15T07:05:57;12.10;99.90
11188;DHT22;5650;52.700;7.306;2024-02-15T07:08:24;12.10;99.90
11188;DHT22;5650;52.700;7.306;2024-02-15T07:10:52;12.10;99.90
11188;DHT22;5650;52.700;7.306;2024-02-15T07:13:23;12.10;99.90
11188;DHT22;5650;52.700;7.306;2024-02-15T07:15:52;12.10;99.90
11188;DHT22;5650;52.700;7.306;2024-02-15T07:18:19;12.20;99.90
11188;DHT22;5650;52.700;7.306;2024-02-15T07:20:47;12.20;99.90
11188;DHT22;5650;52.700;7.306;2024-02-15T07:23:15;12.20;99.90
11188;DHT22;5650;52.700;7.306;2024-02-15T07:25:42;12.20;99.90
11188;DHT22;5650;52.700;7.306;2024-02-15T07:28:15;12.20;99.90
11188;DHT22;5650;52.700;7.306;2024-02-15T07:30:51;12.20;99.90
11188;DHT22;5650;52.700;7.306;2024-02-15T07:33:19;12.20;99.90
11188;DHT22;5650;52.700;7.306;2024-02-15T07:35:58;12.30;99.90
11188;DHT22;5650;52.700;7.306;2024-02-15T07:38:28;12.30;99.90
11188;DHT22;5650;52.700;7.306;2024-02-15T07:41:06;12.30;99.90
11188;DHT22;5650;52.700;7.306;2024-02-15T07:43:33;12.20;99.90
11188;DHT22;5650;52.700;7.306;2024-02-15T07:46:04;12.30;99.90
11188;DHT22;5650;52.700;7.306;2024-02-15T07:48:31;12.30;99.90
11188;DHT22;5650;52.700;7.306;2024-02-15T07:50:58;12.30;99.90
11188;DHT22;5650;52.700;7.306;2024-02-15T07:53:28;12.30;99.90
11188;DHT22;5650;52.700;7.306;2024-02-15T07:55:56;12.30;99.90
11188;DHT22;5650;52.700;7.306;2024-02-15T08:01:42;12.30;99.90
11188;DHT22;5650;52.700;7.306;2024-02-15T08:04:12;12.30;99.90
11188;DHT22;5650;52.700;7.306;2024-02-15T08:06:42;12.30;99.90
11188;DHT22;5650;52.700;7.306;2024-02-15T08:09:12;12.30;99.90
11188;DHT22;5650;52.700;7.306;2024-02-15T08:11:52;12.30;99.90
11188;DHT22;5650;52.700;7.306;2024-02-15T08:14:27;12.40;99.90
11188;DHT22;5650;52.700;7.306;2024-02-15T08:16:56;12.40;99.90
11188;DHT22;5650;52.700;7.306;2024-02-15T08:19:23;12.40;99.90
11188;DHT22;5650;52.700;7.306;2024-02-15T08:21:50;12.40;99.90
11188;DHT22;5650;52.700;7.306;2024-02-15T08:24:17;12.40;99.90
11188;DHT22;5650;52.700;7.306;2024-02-15T08:26:44;12.40;99.90
11188;DHT22;5650;52.700;7.306;2024-02-15T08:29:19;12.40;99.90
11188;DHT22;5650;52.700;7.306;2024-02-15T08:31:49;12.40;99.90
11188;DHT22;5650;52.700;7.306;2024-02-15T08:34:17;12.40;99.90
11188;DHT22;5650;52.700;7.306;2024-02-15T08:36:45;12.40;99.90
11188;DHT22;5650;52.700;7.306;2024-02-15T08:39:16;12.40;99.90
11188;DHT22;5650;52.700;7.306;2024-02-15T08:41:43;12.40;99.90
11188;DHT22;5650;52.700;7.306;2024-02-15T08:44:17;12.40;99.90
11188;DHT22;5650;52.700;7.306;2024-02-15T08:46:47;12.40;99.90
11188;DHT22;5650;52.700;7.306;2024-02-15T08:49:14;12.40;99.90
11188;DHT22;5650;52.700;7.306;2024-02-15T08:51:43;12.40;99.90
11188;DHT22;5650;52.700;7.306;2024-02-15T08:54:10;12.40;99.90
11188;DHT22;5650;52.700;7.306;2024-02-15T08:56:37;12.40;99.90
11188;DHT22;5650;52.700;7.306;2024-02-15T08:59:05;12.40;99.90
11188;DHT22;5650;52.700;7.306;2024-02-15T09:01:32;12.40;99.90
11188;DHT22;5650;52.700;7.306;2024-02-15T09:04:03;12.50;99.90
11188;DHT22;5650;52.700;7.306;2024-02-15T09:06:36;12.50;99.90
11188;DHT22;5650;52.700;7.306;2024-02-15T09:09:07;12.50;99.90
11188;DHT22;5650;52.700;7.306;2024-02-15T09:11:34;12.50;99.90
11188;DHT22;5650;52.700;7.306;2024-02-15T09:14:04;12.40;99.90
11188;DHT22;5650;52.700;7.306;2024-02-15T09:16:43;12.40;99.90
11188;DHT22;5650;52.700;7.306;2024-02-15T09:19:13;12.50;99.90
11188;DHT22;5650;52.700;7.306;2024-02-15T09:21:46;12.50;99.90
11188;DHT22;5650;52.700;7.306;2024-02-15T09:24:15;12.50;99.90
11188;DHT22;5650;52.700;7.306;2024-02-15T09:26:48;12.50;99.90
11188;DHT22;5650;52.700;7.306;2024-02-15T09:29:18;12.60;99.90
11188;DHT22;5650;52.700;7.306;2024-02-15T09:31:47;12.60;99.90
11188;DHT22;5650;52.700;7.306;2024-02-15T09:34:14;12.60;99.90
11188;DHT22;5650;52.700;7.306;2024-02-15T09:36:47;12.60;99.90
11188;DHT22;5650;52.700;7.306;2024-02-15T09:39:16;12.60;99.90
11188;DHT22;5650;52.700;7.306;2024-02-15T09:41:43;12.60;99.90
11188;DHT22;5650;52.700;7.306;2024-02-15T09:44:10;12.60;99.90
11188;DHT22;5650;52.700;7.306;2024-02-15T09:46:43;12.60;99.90
11188;DHT22;5650;52.700;7.306;2024-02-15T09:49:11;12.60;99.90
11188;DHT22;5650;52.700;7.306;2024-02-15T09:51:40;12.60;99.90
11188;DHT22;5650;52.700;7.306;2024-02-15T09:54:08;12.70;99.90
11188;DHT22;5650;52.700;7.306;2024-02-15T09:56:41;12.70;99.90
11188;DHT22;5650;52.700;7.306;2024-02-15T09:59:15;12.70;99.90
11188;DHT22;5650;52.700;7.306;2024-02-15T10:01:46;12.80;99.90
11188;DHT22;5650;52.700;7.306;2024-02-15T10:04:14;12.80;99.90
11188;DHT22;5650;52.700;7.306;2024-02-15T10:06:42;12.80;99.90
11188;DHT22;5650;52.700;7.306;2024-02-15T10:09:24;12.80;99.90
11188;DHT22;5650;52.700;7.306;2024-02-15T10:11:55;12.80;99.90
11188;DHT22;5650;52.700;7.306;2024-02-15T10:14:26;12.80;99.90
11188;DHT22;5650;52.700;7.306;2024-02-15T10:16:54;12.80;99.90
11188;DHT22;5650;52.700;7.306;2024-02-15T10:19:21;12.80;99.90
11188;DHT22;5650;52.700;7.306;2024-02-15T10:22:06;12.80;99.90
11188;DHT22;5650;52.700;7.306;2024-02-15T10:24:34;12.80;99.90
11188;DHT22;5650;52.700;7.306;2024-02-15T10:30:27;12.80;99.90
11188;DHT22;5650;52.700;7.306;2024-02-15T10:32:55;12.80;99.90
11188;DHT22;5650;52.700;7.306;2024-02-15T10:35:24;12.80;99.90
11188;DHT22;5650;52.700;7.306;2024-02-15T10:38:05;12.80;99.90
11188;DHT22;5650;52.700;7.306;2024-02-15T10:40:33;12.80;99.90
11188;DHT22;5650;52.700;7.306;2024-02-15T10:43:04;12.80;99.90
11188;DHT22;5650;52.700;7.306;2024-02-15T10:45:35;12.90;99.90
11188;DHT22;5650;52.700;7.306;2024-02-15T10:48:06;12.90;99.90
11188;DHT22;5650;52.700;7.306;2024-02-15T10:50:39;12.90;99.90
11188;DHT22;5650;52.700;7.306;2024-02-15T10:53:13;13.00;99.90
11188;DHT22;5650;52.700;7.306;2024-02-15T10:55:53;13.00;99.90
11188;DHT22;5650;52.700;7.306;2024-02-15T10:58:39;12.90;99.90
11188;DHT22;5650;52.700;7.306;2024-02-15T11:01:13;13.00;99.90
11188;DHT22;5650;52.700;7.306;2024-02-15T11:03:49;13.00;99.90
11188;DHT22;5650;52.700;7.306;2024-02-15T11:06:18;13.00;99.90
11188;DHT22;5650;52.700;7.306;2024-02-15T11:08:47;13.00;99.90
11188;DHT22;5650;52.700;7.306;2024-02-15T11:11:17;13.00;99.90
11188;DHT22;5650;52.700;7.306;2024-02-15T11:13:46;13.00;99.90
11188;DHT22;5650;52.700;7.306;2024-02-15T11:16:45;13.00;99.90
11188;DHT22;5650;52.700;7.306;2024-02-15T11:22:26;13.00;99.90
11188;DHT22;5650;52.700;7.306;2024-02-15T11:24:53;13.10;99.90
11188;DHT22;5650;52.700;7.306;2024-02-15T11:27:26;13.00;99.90
11188;DHT22;5650;52.700;7.306;2024-02-15T11:29:58;13.00;99.90
11188;DHT22;5650;52.700;7.306;2024-02-15T11:32:41;13.00;99.90
11188;DHT22;5650;52.700;7.306;2024-02-15T11:35:11;13.00;99.90
11188;DHT22;5650;52.700;7.306;2024-02-15T11:37:58;13.00;99.90
11188;DHT22;5650;52.700;7.306;2024-02-15T11:41:04;13.00;99.90
11188;DHT22;5650;52.700;7.306;2024-02-15T11:43:49;13.00;99.90
11188;DHT22;5650;52.700;7.306;2024-02-15T11:46:21;13.00;99.90
11188;DHT22;5650;52.700;7.306;2024-02-15T11:48:52;12.90;99.90
11188;DHT22;5650;52.700;7.306;2024-02-15T11:51:29;12.90;99.90
11188;DHT22;5650;52.700;7.306;2024-02-15T11:54:01;12.90;99.90
11188;DHT22;5650;52.700;7.306;2024-02-15T11:56:32;13.00;99.90
11188;DHT22;5650;52.700;7.306;2024-02-15T11:59:07;13.00;99.90
11188;DHT22;5650;52.700;7.306;2024-02-15T12:01:38;12.90;99.90
11188;DHT22;5650;52.700;7.306;2024-02-15T12:04:36;12.90;99.90
11188;DHT22;5650;52.700;7.306;2024-02-15T12:07:26;13.00;99.90
11188;DHT22;5650;52.700;7.306;2024-02-15T12:10:16;13.00;99.90
11188;DHT22;5650;52.700;7.306;2024-02-15T12:13:07;12.90;99.90
11188;DHT22;5650;52.700;7.306;2024-02-15T12:15:59;12.90;99.90
11188;DHT22;5650;52.700;7.306;2024-02-15T12:19:03;13.00;99.90
11188;DHT22;5650;52.700;7.306;2024-02-15T12:21:35;13.00;99.90
11188;DHT22;5650;52.700;7.306;2024-02-15T12:24:03;13.00;99.90
11188;DHT22;5650;52.700;7.306;2024-02-15T12:26:32;12.90;99.90
11188;DHT22;5650;52.700;7.306;2024-02-15T12:29:00;12.90;99.90
11188;DHT22;5650;52.700;7.306;2024-02-15T12:34:53;13.00;99.90
11188;DHT22;5650;52.700;7.306;2024-02-15T12:37:22;13.00;99.90
11188;DHT22;5650;52.700;7.306;2024-02-15T12:39:55;13.00;99.90
11188;DHT22;5650;52.700;7.306;2024-02-15T12:42:22;13.00;99.90
11188;DHT22;5650;52.700;7.306;2024-02-15T12:44:49;12.90;99.90
11188;DHT22;5650;52.700;7.306;2024-02-15T12:47:20;13.00;99.90
11188;DHT22;5650;52.700;7.306;2024-02-15T12:49:58;13.00;99.90
11188;DHT22;5650;52.700;7.306;2024-02-15T12:52:41;12.90;99.90
11188;DHT22;5650;52.700;7.306;2024-02-15T12:55:13;12.90;99.90
11188;DHT22;5650;52.700;7.306;2024-02-15T12:57:42;12.90;99.90
11188;DHT22;5650;52.700;7.306;2024-02-15T13:00:17;12.90;99.90
11188;DHT22;5650;52.700;7.306;2024-02-15T13:02:48;12.90;99.90
11188;DHT22;5650;52.700;7.306;2024-02-15T13:05:24;12.90;99.90
11188;DHT22;5650;52.700;7.306;2024-02-15T13:07:54;12.90;99.90
11188;DHT22;5650;52.700;7.306;2024-02-15T13:10:22;12.90;99.90
11188;DHT22;5650;52.700;7.306;2024-02-15T13:13:09;12.90;99.90
11188;DHT22;5650;52.700;7.306;2024-02-15T13:15:39;12.90;99.90
11188;DHT22;5650;52.700;7.306;2024-02-15T13:18:09;12.90;99.90
11188;DHT22;5650;52.700;7.306;2024-02-15T13:20:42;12.90;99.90
11188;DHT22;5650;52.700;7.306;2024-02-15T13:23:11;12.90;99.90
11188;DHT22;5650;52.700;7.306;2024-02-15T13:25:45;13.00;99.90
11188;DHT22;5650;52.700;7.306;2024-02-15T13:28:12;13.00;99.90
11188;DHT22;5650;52.700;7.306;2024-02-15T13:30:39;13.00;99.90
11188;DHT22;5650;52.700;7.306;2024-02-15T13:33:08;13.00;99.90
11188;DHT22;5650;52.700;7.306;2024-02-15T13:35:38;13.00;99.90
11188;DHT22;5650;52.700;7.306;2024-02-15T13:38:11;13.00;99.90
11188;DHT22;5650;52.700;7.306;2024-02-15T13:40:40;13.00;99.90
11188;DHT22;5650;52.700;7.306;2024-02-15T13:43:07;13.00;99.90
11188;DHT22;5650;52.700;7.306;2024-02-15T13:45:39;13.00;99.90
11188;DHT22;5650;52.700;7.306;2024-02-15T13:48:07;13.10;99.90
11188;DHT22;5650;52.700;7.306;2024-02-15T13:50:35;13.10;99.90
11188;DHT22;5650;52.700;7.306;2024-02-15T13:53:03;13.10;99.90
11188;DHT22;5650;52.700;7.306;2024-02-15T13:55:32;13.10;99.90
11188;DHT22;5650;52.700;7.306;2024-02-15T13:57:59;13.10;99.90
11188;DHT22;5650;52.700;7.306;2024-02-15T14:00:27;13.10;99.90
11188;DHT22;5650;52.700;7.306;2024-02-15T14:03:02;13.10;99.90
11188;DHT22;5650;52.700;7.306;2024-02-15T14:05:32;13.10;99.90
11188;DHT22;5650;52.700;7.306;2024-02-15T14:08:00;13.10;99.90
11188;DHT22;5650;52.700;7.306;2024-02-15T14:10:33;13.10;99.90
11188;DHT22;5650;52.700;7.306;2024-02-15T14:13:02;13.20;99.90
11188;DHT22;5650;52.700;7.306;2024-02-15T14:15:31;13.20;99.90
11188;DHT22;5650;52.700;7.306;2024-02-15T14:18:00;13.20;99.90
11188;DHT22;5650;52.700;7.306;2024-02-15T14:20:37;13.20;99.90
11188;DHT22;5650;52.700;7.306;2024-02-15T14:23:07;13.20;99.90
11188;DHT22;5650;52.700;7.306;2024-02-15T14:25:40;13.20;99.90
11188;DHT22;5650;52.700;7.306;2024-02-15T14:28:08;13.30;99.90
11188;DHT22;5650;52.700;7.306;2024-02-15T14:30:39;13.30;99.90
11188;DHT22;5650;52.700;7.306;2024-02-15T14:33:27;13.30;99.90
11188;DHT22;5650;52.700;7.306;2024-02-15T14:35:54;13.40;99.90
11188;DHT22;5650;52.700;7.306;2024-02-15T14:38:24;13.40;99.90
11188;DHT22;5650;52.700;7.306;2024-02-15T14:40:53;13.40;99.90
11188;DHT22;5650;52.700;7.306;2024-02-15T14:43:27;13.50;99.90
11188;DHT22;5650;52.700;7.306;2024-02-15T14:46:02;13.50;99.90
11188;DHT22;5650;52.700;7.306;2024-02-15T14:48:31;13.50;99.90
11188;DHT22;5650;52.700;7.306;2024-02-15T14:50:59;13.50;99.90
11188;DHT22;5650;52.700;7.306;2024-02-15T14:53:30;13.50;99.90
11188;DHT22;5650;52.700;7.306;2024-02-15T14:56:00;13.50;99.90
11188;DHT22;5650;52.700;7.306;2024-02-15T14:58:32;13.50;99.90
11188;DHT22;5650;52.700;7.306;2024-02-15T15:00:59;13.40;99.90
11188;DHT22;5650;52.700;7.306;2024-02-15T15:03:36;13.50;99.90
11188;DHT22;5650;52.700;7.306;2024-02-15T15:06:03;13.50;99.90
11188;DHT22;5650;52.700;7.306;2024-02-15T15:08:50;13.50;99.90
11188;DHT22;5650;52.700;7.306;2024-02-15T15:11:39;13.50;99.90
11188;DHT22;5650;52.700;7.306;2024-02-15T15:14:33;13.50;99.90
11188;DHT22;5650;52.700;7.306;2024-02-15T15:17:00;13.50;99.90
11188;DHT22;5650;52.700;7.306;2024-02-15T15:19:27;13.50;99.90
11188;DHT22;5650;52.700;7.306;2024-02-15T15:21:54;13.50;99.90
11188;DHT22;5650;52.700;7.306;2024-02-15T15:24:21;13.50;99.90
11188;DHT22;5650;52.700;7.306;2024-02-15T15:26:50;13.50;99.90
11188;DHT22;5650;52.700;7.306;2024-02-15T15:29:17;13.50;99.90
11188;DHT22;5650;52.700;7.306;2024-02-15T15:31:51;13.60;99.90
11188;DHT22;5650;52.700;7.306;2024-02-15T15:34:18;13.60;99.90
11188;DHT22;5650;52.700;7.306;2024-02-15T15:36:45;13.60;99.90
11188;DHT22;5650;52.700;7.306;2024-02-15T15:39:12;13.60;99.90
11188;DHT22;5650;52.700;7.306;2024-02-15T15:41:45;13.50;99.90
11188;DHT22;5650;52.700;7.306;2024-02-15T15:44:16;13.50;99.90
11188;DHT22;5650;52.700;7.306;2024-02-15T15:46:47;13.50;99.90
11188;DHT22;5650;52.700;7.306;2024-02-15T15:49:17;13.50;99.90
11188;DHT22;5650;52.700;7.306;2024-02-15T15:51:44;13.50;99.90
11188;DHT22;5650;52.700;7.306;2024-02-15T15:54:15;13.50;99.90
11188;DHT22;5650;52.700;7.306;2024-02-15T15:56:51;13.50;99.90
11188;DHT22;5650;52.700;7.306;2024-02-15T15:59:23;13.50;99.90
11188;DHT22;5650;52.700;7.306;2024-02-15T16:01:51;13.50;99.90
11188;DHT22;5650;52.700;7.306;2024-02-15T16:04:19;13.50;99.90
11188;DHT22;5650;52.700;7.306;2024-02-15T16:06:50;13.50;99.90
11188;DHT22;5650;52.700;7.306;2024-02-15T16:09:22;13.50;99.90
11188;DHT22;5650;52.700;7.306;2024-02-15T16:11:58;13.50;99.90
11188;DHT22;5650;52.700;7.306;2024-02-15T16:14:27;13.40;99.90
11188;DHT22;5650;52.700;7.306;2024-02-15T16:16:54;13.40;99.90
11188;DHT22;5650;52.700;7.306;2024-02-15T16:19:27;13.40;99.90
11188;DHT22;5650;52.700;7.306;2024-02-15T16:21:54;13.40;99.90
11188;DHT22;5650;52.700;7.306;2024-02-15T16:24:21;13.40;99.90
11188;DHT22;5650;52.700;7.306;2024-02-15T16:26:48;13.40;99.90
11188;DHT22;5650;52.700;7.306;2024-02-15T16:29:16;13.40;99.90
11188;DHT22;5650;52.700;7.306;2024-02-15T16:31:45;13.40;99.90
11188;DHT22;5650;52.700;7.306;2024-02-15T16:34:13;13.40;99.90
11188;DHT22;5650;52.700;7.306;2024-02-15T16:36:42;13.70;99.90
11188;DHT22;5650;52.700;7.306;2024-02-15T16:39:10;14.10;99.90
11188;DHT22;5650;52.700;7.306;2024-02-15T16:41:38;14.30;99.90
11188;DHT22;5650;52.700;7.306;2024-02-15T16:44:05;14.50;99.90
11188;DHT22;5650;52.700;7.306;2024-02-15T16:46:32;14.50;99.90